createdAt,value
2023-04-01T00:00:09.067Z,11.50
2023-04-01T00:00:30.180Z,11.49
2023-04-01T00:00:51.255Z,11.50
2023-04-01T00:01:12.320Z,11.50
2023-04-01T00:01:33.378Z,11.50
2023-04-01T00:01:54.441Z,11.50
2023-04-01T00:02:15.524Z,11.50
2023-04-01T00:02:36.738Z,11.50
2023-04-01T00:02:57.970Z,11.50
2023-04-01T00:03:19.205Z,11.50
2023-04-01T00:03:40.515Z,11.51
2023-04-01T00:04:01.717Z,11.50
2023-04-01T00:04:22.820Z,11.51
2023-04-01T00:04:44.022Z,11.50
2023-04-01T00:05:05.116Z,11.51
2023-04-01T00:05:26.244Z,11.50
2023-04-01T00:05:47.353Z,11.50
2023-04-01T00:06:08.397Z,11.50
2023-04-01T00:06:29.425Z,11.50
2023-04-01T00:06:50.481Z,11.50
2023-04-01T00:07:11.537Z,11.50
2023-04-01T00:07:32.642Z,11.50
2023-04-01T00:07:53.671Z,11.50
2023-04-01T00:08:14.718Z,11.50
2023-04-01T00:08:35.786Z,11.50
2023-04-01T00:08:56.895Z,11.50
2023-04-01T00:09:17.940Z,11.49
2023-04-01T00:09:39.022Z,11.49
2023-04-01T00:10:00.064Z,11.50
2023-04-01T00:10:21.122Z,11.50
2023-04-01T00:10:42.325Z,11.50
2023-04-01T00:11:03.373Z,11.50
2023-04-01T00:11:24.473Z,11.50
2023-04-01T00:11:45.540Z,11.49
2023-04-01T00:12:06.659Z,11.50
2023-04-01T00:12:27.688Z,11.50
2023-04-01T00:12:48.732Z,11.50
2023-04-01T00:13:09.795Z,11.50
2023-04-01T00:13:30.984Z,11.49
2023-04-01T00:13:52.003Z,11.50
2023-04-01T00:14:13.077Z,11.50
2023-04-01T00:14:34.126Z,11.50
2023-04-01T00:14:55.204Z,11.49
2023-04-01T00:15:16.273Z,11.49
2023-04-01T00:15:37.348Z,11.49
2023-04-01T00:16:00.096Z,11.48
2023-04-01T00:16:22.769Z,11.49
2023-04-01T00:16:43.958Z,11.48
2023-04-01T00:17:05.147Z,11.49
2023-04-01T00:17:26.335Z,11.49
2023-04-01T00:17:47.387Z,11.48
2023-04-01T00:18:08.448Z,11.48
2023-04-01T00:18:29.514Z,11.48
2023-04-01T00:18:50.587Z,11.49
2023-04-01T00:19:11.642Z,11.49
2023-04-01T00:19:32.723Z,11.49
2023-04-01T00:19:53.755Z,11.49
2023-04-01T00:20:14.820Z,11.49
2023-04-01T00:20:35.876Z,11.48
2023-04-01T00:20:56.964Z,11.48
2023-04-01T00:21:18.065Z,11.48
2023-04-01T00:21:39.313Z,11.49
2023-04-01T00:22:00.383Z,11.48
2023-04-01T00:22:21.464Z,11.48
2023-04-01T00:22:42.522Z,11.48
2023-04-01T00:23:03.626Z,11.48
2023-04-01T00:23:24.669Z,11.48
2023-04-01T00:23:45.723Z,11.49
2023-04-01T00:24:06.782Z,11.48
2023-04-01T00:24:27.848Z,11.48
2023-04-01T00:24:48.929Z,11.49
2023-04-01T00:25:09.968Z,11.49
2023-04-01T00:25:31.418Z,11.49
2023-04-01T00:25:52.697Z,11.49
2023-04-01T00:26:13.767Z,11.48
2023-04-01T00:26:34.854Z,11.48
2023-04-01T00:26:55.958Z,11.49
2023-04-01T00:27:16.982Z,11.48
2023-04-01T00:27:38.041Z,11.48
2023-04-01T00:27:59.120Z,11.49
2023-04-01T00:28:20.162Z,11.49
2023-04-01T00:28:41.354Z,11.48
2023-04-01T00:29:02.472Z,11.48
2023-04-01T00:29:23.511Z,11.48
2023-04-01T00:29:44.563Z,11.48
2023-04-01T00:30:05.630Z,11.48
2023-04-01T00:30:26.699Z,11.48
2023-04-01T00:30:47.789Z,11.47
2023-04-01T00:31:08.898Z,11.48
2023-04-01T00:31:30.017Z,11.48
2023-04-01T00:31:51.127Z,11.48
2023-04-01T00:32:12.423Z,11.48
2023-04-01T00:32:33.503Z,11.47
2023-04-01T00:32:54.651Z,11.48
2023-04-01T00:33:15.714Z,11.47
2023-04-01T00:33:36.831Z,11.47
2023-04-01T00:33:57.888Z,11.47
2023-04-01T00:34:18.935Z,11.46
2023-04-01T00:34:40.018Z,11.47
2023-04-01T00:35:01.079Z,11.46
2023-04-01T00:35:22.157Z,11.46
2023-04-01T00:35:43.234Z,11.47
2023-04-01T00:36:04.327Z,11.46
2023-04-01T00:36:25.370Z,11.47
2023-04-01T00:36:46.415Z,11.47
2023-04-01T00:37:07.685Z,11.47
2023-04-01T00:37:28.769Z,11.47
2023-04-01T00:37:49.815Z,11.46
2023-04-01T00:38:10.886Z,11.47
2023-04-01T00:38:31.967Z,11.46
2023-04-01T00:38:53.004Z,11.47
2023-04-01T00:39:14.059Z,11.47
2023-04-01T00:39:35.134Z,11.47
2023-04-01T00:39:56.197Z,11.47
2023-04-01T00:40:17.255Z,11.47
2023-04-01T00:40:38.333Z,11.46
2023-04-01T00:40:59.452Z,11.46
2023-04-01T00:41:20.513Z,11.46
2023-04-01T00:41:41.578Z,11.46
2023-04-01T00:42:02.622Z,11.47
2023-04-01T00:42:23.713Z,11.46
2023-04-01T00:42:44.794Z,11.47
2023-04-01T00:43:05.846Z,11.47
2023-04-01T00:43:26.932Z,11.46
2023-04-01T00:43:47.977Z,11.47
2023-04-01T00:44:09.105Z,11.46
2023-04-01T00:44:30.166Z,11.46
2023-04-01T00:44:51.233Z,11.46
2023-04-01T00:45:12.306Z,11.46
2023-04-01T00:45:33.735Z,11.47
2023-04-01T00:45:54.944Z,11.46
2023-04-01T00:46:16.054Z,11.47
2023-04-01T00:46:37.135Z,11.47
2023-04-01T00:46:58.212Z,11.46
2023-04-01T00:47:19.290Z,11.47
2023-04-01T00:47:40.524Z,11.46
2023-04-01T00:48:01.624Z,11.46
2023-04-01T00:48:22.671Z,11.46
2023-04-01T00:48:43.718Z,11.46
2023-04-01T00:49:04.781Z,11.46
2023-04-01T00:49:25.877Z,11.47
2023-04-01T00:49:46.909Z,11.46
2023-04-01T00:50:07.973Z,11.45
2023-04-01T00:50:29.029Z,11.46
2023-04-01T00:50:50.108Z,11.45
2023-04-01T00:51:11.179Z,11.45
2023-04-01T00:51:32.236Z,11.45
2023-04-01T00:51:53.363Z,11.45
2023-04-01T00:52:14.399Z,11.46
2023-04-01T00:52:35.443Z,11.45
2023-04-01T00:52:56.693Z,11.46
2023-04-01T00:53:17.951Z,11.45
2023-04-01T00:53:39.013Z,11.46
2023-04-01T00:54:00.108Z,11.45
2023-04-01T00:54:21.166Z,11.46
2023-04-01T00:54:42.241Z,11.45
2023-04-01T00:55:03.314Z,11.45
2023-04-01T00:55:24.357Z,11.45
2023-04-01T00:55:45.408Z,11.46
2023-04-01T00:56:06.480Z,11.45
2023-04-01T00:56:27.530Z,11.45
2023-04-01T00:56:48.727Z,11.45
2023-04-01T00:57:09.791Z,11.44
2023-04-01T00:57:30.898Z,11.44
2023-04-01T00:57:51.938Z,11.45
2023-04-01T00:58:13.170Z,11.44
2023-04-01T00:58:34.416Z,11.44
2023-04-01T00:58:55.499Z,11.44
2023-04-01T00:59:16.560Z,11.43
2023-04-01T00:59:37.607Z,11.44
2023-04-01T00:59:58.676Z,11.43
2023-04-01T01:00:19.739Z,11.43
2023-04-01T01:00:40.895Z,11.43
2023-04-01T01:01:02.064Z,11.43
2023-04-01T01:01:23.305Z,11.42
2023-04-01T01:01:44.489Z,11.44
2023-04-01T01:02:05.589Z,11.43
2023-04-01T01:02:26.727Z,11.42
2023-04-01T01:02:47.882Z,11.43
2023-04-01T01:03:09.085Z,11.43
2023-04-01T01:03:30.338Z,11.44
2023-04-01T01:03:51.583Z,11.43
2023-04-01T01:04:12.701Z,11.43
2023-04-01T01:04:33.727Z,11.43
2023-04-01T01:04:54.794Z,11.43
2023-04-01T01:05:15.840Z,11.43
2023-04-01T01:05:48.049Z,11.44
2023-04-01T01:06:03.865Z,11.43
2023-04-01T01:06:24.911Z,11.42
2023-04-01T01:06:46.015Z,11.43
2023-04-01T01:07:07.064Z,11.42
2023-04-01T01:07:28.129Z,11.42
2023-04-01T01:07:49.226Z,11.42
2023-04-01T01:08:10.274Z,11.42
2023-04-01T01:08:31.408Z,11.42
2023-04-01T01:08:52.630Z,11.42
2023-04-01T01:09:13.699Z,11.42
2023-04-01T01:09:34.804Z,11.42
2023-04-01T01:09:55.819Z,11.42
2023-04-01T01:10:16.966Z,11.43
2023-04-01T01:10:37.999Z,11.42
2023-04-01T01:10:59.056Z,11.42
2023-04-01T01:11:20.596Z,11.42
2023-04-01T01:11:43.709Z,11.42
2023-04-01T01:12:05.045Z,11.42
2023-04-01T01:12:26.112Z,11.42
2023-04-01T01:12:47.183Z,11.42
2023-04-01T01:13:08.250Z,11.42
2023-04-01T01:13:29.336Z,11.42
2023-04-01T01:13:50.562Z,11.41
2023-04-01T01:14:11.843Z,11.42
2023-04-01T01:14:32.875Z,11.42
2023-04-01T01:14:53.932Z,11.42
2023-04-01T01:15:14.977Z,11.42
2023-04-01T01:15:36.064Z,11.42
2023-04-01T01:15:57.114Z,11.41
2023-04-01T01:16:18.221Z,11.41
2023-04-01T01:16:39.270Z,11.41
2023-04-01T01:17:00.447Z,11.40
2023-04-01T01:17:21.553Z,11.41
2023-04-01T01:17:42.633Z,11.41
2023-04-01T01:18:03.695Z,11.40
2023-04-01T01:18:24.780Z,11.41
2023-04-01T01:18:45.845Z,11.41
2023-04-01T01:19:07.176Z,11.41
2023-04-01T01:19:28.429Z,11.40
2023-04-01T01:19:49.545Z,11.40
2023-04-01T01:20:22.676Z,11.41
2023-04-01T01:20:37.544Z,11.41
2023-04-01T01:20:58.615Z,11.41
2023-04-01T01:21:19.638Z,11.40
2023-04-01T01:21:40.689Z,11.40
2023-04-01T01:22:01.760Z,11.41
2023-04-01T01:22:22.807Z,11.41
2023-04-01T01:22:43.862Z,11.41
2023-04-01T01:23:04.926Z,11.41
2023-04-01T01:23:26.042Z,11.41
2023-04-01T01:23:47.066Z,11.41
2023-04-01T01:24:08.162Z,11.40
2023-04-01T01:24:29.238Z,11.40
2023-04-01T01:24:50.309Z,11.40
2023-04-01T01:25:11.374Z,11.40
2023-04-01T01:25:32.858Z,11.40
2023-04-01T01:25:54.103Z,11.40
2023-04-01T01:26:15.205Z,11.40
2023-04-01T01:26:36.249Z,11.40
2023-04-01T01:26:57.319Z,11.40
2023-04-01T01:27:18.380Z,11.40
2023-04-01T01:27:39.448Z,11.40
2023-04-01T01:28:00.491Z,11.40
2023-04-01T01:28:21.645Z,11.40
2023-04-01T01:28:42.772Z,11.40
2023-04-01T01:29:03.839Z,11.40
2023-04-01T01:29:24.978Z,11.40
2023-04-01T01:29:46.268Z,11.39
2023-04-01T01:30:07.343Z,11.40
2023-04-01T01:30:28.422Z,11.39
2023-04-01T01:30:49.532Z,11.39
2023-04-01T01:31:10.638Z,11.39
2023-04-01T01:31:31.690Z,11.38
2023-04-01T01:31:52.735Z,11.38
2023-04-01T01:32:13.825Z,11.38
2023-04-01T01:32:34.893Z,11.38
2023-04-01T01:32:56.021Z,11.38
2023-04-01T01:33:17.116Z,11.38
2023-04-01T01:33:38.144Z,11.38
2023-04-01T01:33:59.204Z,11.38
2023-04-01T01:34:20.282Z,11.37
2023-04-01T01:34:41.505Z,11.38
2023-04-01T01:35:02.810Z,11.38
2023-04-01T01:35:23.864Z,11.37
2023-04-01T01:35:44.947Z,11.38
2023-04-01T01:36:06.053Z,11.37
2023-04-01T01:36:27.152Z,11.37
2023-04-01T01:36:48.169Z,11.37
2023-04-01T01:37:09.262Z,11.37
2023-04-01T01:37:30.329Z,11.38
2023-04-01T01:37:51.389Z,11.37
2023-04-01T01:38:12.493Z,11.37
2023-04-01T01:38:33.525Z,11.38
2023-04-01T01:38:54.584Z,11.38
2023-04-01T01:39:15.656Z,11.38
2023-04-01T01:39:36.701Z,11.38
2023-04-01T01:39:57.815Z,11.38
2023-04-01T01:40:19.059Z,11.37
2023-04-01T01:40:40.140Z,11.38
2023-04-01T01:41:01.175Z,11.37
2023-04-01T01:41:22.251Z,11.38
2023-04-01T01:41:43.305Z,11.38
2023-04-01T01:42:04.359Z,11.38
2023-04-01T01:42:25.441Z,11.37
2023-04-01T01:42:46.484Z,11.38
2023-04-01T01:43:07.549Z,11.37
2023-04-01T01:43:28.595Z,11.38
2023-04-01T01:43:49.650Z,11.38
2023-04-01T01:44:10.760Z,11.38
2023-04-01T01:44:31.823Z,11.38
2023-04-01T01:44:52.892Z,11.38
2023-04-01T01:45:14.229Z,11.38
2023-04-01T01:45:35.285Z,11.37
2023-04-01T01:45:56.379Z,11.38
2023-04-01T01:46:17.546Z,11.38
2023-04-01T01:46:38.660Z,11.38
2023-04-01T01:46:59.705Z,11.37
2023-04-01T01:47:20.809Z,11.38
2023-04-01T01:47:41.891Z,11.38
2023-04-01T01:48:03.011Z,11.38
2023-04-01T01:48:24.085Z,11.37
2023-04-01T01:48:45.122Z,11.37
2023-04-01T01:49:06.154Z,11.38
2023-04-01T01:49:27.229Z,11.37
2023-04-01T01:49:48.288Z,11.37
2023-04-01T01:50:09.365Z,11.37
2023-04-01T01:50:30.450Z,11.37
2023-04-01T01:50:51.534Z,11.38
2023-04-01T01:51:12.597Z,11.37
2023-04-01T01:51:33.703Z,11.37
2023-04-01T01:51:54.733Z,11.37
2023-04-01T01:52:15.785Z,11.37
2023-04-01T01:52:36.867Z,11.38
2023-04-01T01:52:57.902Z,11.37
2023-04-01T01:53:18.973Z,11.37
2023-04-01T01:53:40.042Z,11.37
2023-04-01T01:54:01.090Z,11.37
2023-04-01T01:54:22.159Z,11.37
2023-04-01T01:54:43.224Z,11.37
2023-04-01T01:55:04.306Z,11.38
2023-04-01T01:55:25.342Z,11.37
2023-04-01T01:55:46.429Z,11.37
2023-04-01T01:56:07.497Z,11.37
2023-04-01T01:56:28.549Z,11.37
2023-04-01T01:56:49.646Z,11.37
2023-04-01T01:57:10.737Z,11.38
2023-04-01T01:57:31.971Z,11.37
2023-04-01T01:57:53.083Z,11.37
2023-04-01T01:58:14.147Z,11.37
2023-04-01T01:58:35.206Z,11.38
2023-04-01T01:58:56.251Z,11.38
2023-04-01T01:59:17.306Z,11.37
2023-04-01T01:59:38.437Z,11.37
2023-04-01T01:59:59.457Z,11.37
2023-04-01T02:00:20.497Z,11.37
2023-04-01T02:00:41.586Z,11.37
2023-04-01T02:01:02.675Z,11.37
2023-04-01T02:01:23.753Z,11.37
2023-04-01T02:01:44.832Z,11.37
2023-04-01T02:02:05.855Z,11.37
2023-04-01T02:02:26.932Z,11.37
2023-04-01T02:02:48.008Z,11.36
2023-04-01T02:03:09.085Z,11.37
2023-04-01T02:03:30.123Z,11.36
2023-04-01T02:03:51.172Z,11.36
2023-04-01T02:04:12.367Z,11.36
2023-04-01T02:04:33.549Z,11.37
2023-04-01T02:04:54.695Z,11.37
2023-04-01T02:05:15.832Z,11.37
2023-04-01T02:05:36.874Z,11.37
2023-04-01T02:05:57.928Z,11.37
2023-04-01T02:06:19.003Z,11.36
2023-04-01T02:06:40.083Z,11.37
2023-04-01T02:07:01.147Z,11.36
2023-04-01T02:07:22.188Z,11.36
2023-04-01T02:07:43.262Z,11.37
2023-04-01T02:08:04.315Z,11.37
2023-04-01T02:08:25.387Z,11.37
2023-04-01T02:08:46.437Z,11.37
2023-04-01T02:09:07.487Z,11.36
2023-04-01T02:09:28.550Z,11.37
2023-04-01T02:09:49.611Z,11.37
2023-04-01T02:10:10.675Z,11.37
2023-04-01T02:10:31.732Z,11.37
2023-04-01T02:10:52.794Z,11.37
2023-04-01T02:11:13.946Z,11.37
2023-04-01T02:11:35.188Z,11.37
2023-04-01T02:11:56.285Z,11.37
2023-04-01T02:12:17.346Z,11.37
2023-04-01T02:12:38.407Z,11.37
2023-04-01T02:12:59.456Z,11.37
2023-04-01T02:13:20.535Z,11.37
2023-04-01T02:13:41.676Z,11.37
2023-04-01T02:14:02.743Z,11.37
2023-04-01T02:14:23.797Z,11.37
2023-04-01T02:14:44.880Z,11.37
2023-04-01T02:15:05.888Z,11.37
2023-04-01T02:15:26.968Z,11.37
2023-04-01T02:15:48.085Z,11.37
2023-04-01T02:16:09.149Z,11.36
2023-04-01T02:16:30.244Z,11.37
2023-04-01T02:16:51.326Z,11.36
2023-04-01T02:17:12.575Z,11.37
2023-04-01T02:17:33.758Z,11.37
2023-04-01T02:17:54.837Z,11.37
2023-04-01T02:18:15.908Z,11.38
2023-04-01T02:18:36.948Z,11.37
2023-04-01T02:18:58.012Z,11.37
2023-04-01T02:19:19.070Z,11.37
2023-04-01T02:19:40.119Z,11.37
2023-04-01T02:20:01.188Z,11.37
2023-04-01T02:20:22.271Z,11.37
2023-04-01T02:20:43.358Z,11.37
2023-04-01T02:21:04.411Z,11.37
2023-04-01T02:21:25.481Z,11.38
2023-04-01T02:21:46.532Z,11.37
2023-04-01T02:22:07.618Z,11.37
2023-04-01T02:22:28.704Z,11.37
2023-04-01T02:22:49.779Z,11.37
2023-04-01T02:23:10.858Z,11.37
2023-04-01T02:23:31.917Z,11.37
2023-04-01T02:23:53.001Z,11.37
2023-04-01T02:24:14.034Z,11.37
2023-04-01T02:24:35.092Z,11.38
2023-04-01T02:24:56.176Z,11.38
2023-04-01T02:25:17.252Z,11.38
2023-04-01T02:25:38.290Z,11.37
2023-04-01T02:25:59.397Z,11.38
2023-04-01T02:26:20.409Z,11.37
2023-04-01T02:26:41.465Z,11.38
2023-04-01T02:27:02.542Z,11.38
2023-04-01T02:27:23.786Z,11.38
2023-04-01T02:27:44.866Z,11.38
2023-04-01T02:28:05.923Z,11.38
2023-04-01T02:28:26.968Z,11.39
2023-04-01T02:28:48.028Z,11.39
2023-04-01T02:29:09.100Z,11.39
2023-04-01T02:29:30.150Z,11.39
2023-04-01T02:29:51.232Z,11.39
2023-04-01T02:30:12.306Z,11.39
2023-04-01T02:30:33.347Z,11.39
2023-04-01T02:30:54.413Z,11.39
2023-04-01T02:31:15.507Z,11.39
2023-04-01T02:31:36.600Z,11.39
2023-04-01T02:31:57.671Z,11.39
2023-04-01T02:32:18.705Z,11.40
2023-04-01T02:32:39.832Z,11.39
2023-04-01T02:33:00.984Z,11.40
2023-04-01T02:33:22.126Z,11.40
2023-04-01T02:33:43.142Z,11.40
2023-04-01T02:34:04.193Z,11.40
2023-04-01T02:34:25.254Z,11.40
2023-04-01T02:35:07.356Z,11.40
2023-04-01T02:35:28.425Z,11.40
2023-04-01T02:35:49.517Z,11.40
2023-04-01T02:36:10.566Z,11.40
2023-04-01T02:36:31.650Z,11.40
2023-04-01T02:36:52.701Z,11.40
2023-04-01T02:37:13.757Z,11.40
2023-04-01T02:37:36.302Z,11.40
2023-04-01T02:37:58.472Z,11.39
2023-04-01T02:38:19.741Z,11.41
2023-04-01T02:38:41.015Z,11.39
2023-04-01T02:39:02.077Z,11.40
2023-04-01T02:39:23.114Z,11.39
2023-04-01T02:39:44.169Z,11.39
2023-04-01T02:40:05.229Z,11.39
2023-04-01T02:40:26.295Z,11.39
2023-04-01T02:40:47.368Z,11.39
2023-04-01T02:41:08.420Z,11.39
2023-04-01T02:41:29.460Z,11.39
2023-04-01T02:41:50.532Z,11.40
2023-04-01T02:42:11.600Z,11.41
2023-04-01T02:42:32.659Z,11.40
2023-04-01T02:42:53.762Z,11.40
2023-04-01T02:43:14.843Z,11.40
2023-04-01T02:43:35.946Z,11.40
2023-04-01T02:43:56.985Z,11.39
2023-04-01T02:44:18.067Z,11.40
2023-04-01T02:44:39.104Z,11.39
2023-04-01T02:45:00.169Z,11.39
2023-04-01T02:45:21.228Z,11.39
2023-04-01T02:45:42.282Z,11.40
2023-04-01T02:46:03.403Z,11.40
2023-04-01T02:46:24.475Z,11.40
2023-04-01T02:46:45.566Z,11.40
2023-04-01T02:47:06.711Z,11.40
2023-04-01T02:47:27.852Z,11.40
2023-04-01T02:47:48.973Z,11.40
2023-04-01T02:48:10.028Z,11.40
2023-04-01T02:48:31.294Z,11.40
2023-04-01T02:48:52.353Z,11.40
2023-04-01T02:49:13.464Z,11.40
2023-04-01T02:49:34.473Z,11.40
2023-04-01T02:49:55.582Z,11.41
2023-04-01T02:50:16.628Z,11.40
2023-04-01T02:50:37.683Z,11.40
2023-04-01T02:50:58.750Z,11.40
2023-04-01T02:51:19.829Z,11.40
2023-04-01T02:51:40.903Z,11.40
2023-04-01T02:52:01.946Z,11.40
2023-04-01T02:52:22.999Z,11.40
2023-04-01T02:52:44.125Z,11.40
2023-04-01T02:53:05.151Z,11.39
2023-04-01T02:53:26.223Z,11.39
2023-04-01T02:53:47.495Z,11.40
2023-04-01T02:54:08.570Z,11.40
2023-04-01T02:54:29.633Z,11.39
2023-04-01T02:54:50.696Z,11.39
2023-04-01T02:55:11.849Z,11.38
2023-04-01T02:55:33.046Z,11.39
2023-04-01T02:55:54.245Z,11.38
2023-04-01T02:56:15.320Z,11.39
2023-04-01T02:56:36.362Z,11.39
2023-04-01T02:56:57.543Z,11.38
2023-04-01T02:57:18.654Z,11.38
2023-04-01T02:57:39.721Z,11.38
2023-04-01T02:58:00.827Z,11.38
2023-04-01T02:58:21.853Z,11.38
2023-04-01T02:58:42.904Z,11.37
2023-04-01T02:59:03.994Z,11.38
2023-04-01T02:59:25.074Z,11.38
2023-04-01T02:59:46.128Z,11.38
2023-04-01T03:00:07.288Z,11.38
2023-04-01T03:00:28.340Z,11.38
2023-04-01T03:00:49.570Z,11.37
2023-04-01T03:01:10.810Z,11.38
2023-04-01T03:01:31.930Z,11.38
2023-04-01T03:01:53.031Z,11.38
2023-04-01T03:02:14.099Z,11.38
2023-04-01T03:02:35.236Z,11.38
2023-04-01T03:02:56.469Z,11.38
2023-04-01T03:03:17.691Z,11.38
2023-04-01T03:03:38.813Z,11.37
2023-04-01T03:03:59.911Z,11.37
2023-04-01T03:04:21.015Z,11.37
2023-04-01T03:04:42.252Z,11.37
2023-04-01T03:05:03.316Z,11.37
2023-04-01T03:05:24.367Z,11.37
2023-04-01T03:05:45.417Z,11.36
2023-04-01T03:06:06.506Z,11.36
2023-04-01T03:06:27.603Z,11.36
2023-04-01T03:06:48.632Z,11.36
2023-04-01T03:07:09.691Z,11.36
2023-04-01T03:07:30.751Z,11.37
2023-04-01T03:07:51.832Z,11.36
2023-04-01T03:08:12.889Z,11.37
2023-04-01T03:08:33.949Z,11.36
2023-04-01T03:08:55.014Z,11.36
2023-04-01T03:09:16.065Z,11.36
2023-04-01T03:09:37.186Z,11.36
2023-04-01T03:09:58.245Z,11.36
2023-04-01T03:10:19.286Z,11.35
2023-04-01T03:10:40.357Z,11.35
2023-04-01T03:11:01.457Z,11.36
2023-04-01T03:11:22.504Z,11.36
2023-04-01T03:11:43.538Z,11.36
2023-04-01T03:12:04.588Z,11.36
2023-04-01T03:12:25.638Z,11.36
2023-04-01T03:12:46.723Z,11.35
2023-04-01T03:13:07.796Z,11.36
2023-04-01T03:13:28.916Z,11.34
2023-04-01T03:13:49.944Z,11.35
2023-04-01T03:14:10.987Z,11.34
2023-04-01T03:14:32.080Z,11.34
2023-04-01T03:14:53.175Z,11.34
2023-04-01T03:15:14.261Z,11.34
2023-04-01T03:15:35.372Z,11.34
2023-04-01T03:15:56.424Z,11.34
2023-04-01T03:16:17.517Z,11.34
2023-04-01T03:16:38.768Z,11.33
2023-04-01T03:16:59.984Z,11.34
2023-04-01T03:17:21.186Z,11.33
2023-04-01T03:17:42.237Z,11.33
2023-04-01T03:18:03.368Z,11.33
2023-04-01T03:18:24.439Z,11.33
2023-04-01T03:18:45.498Z,11.32
2023-04-01T03:19:06.575Z,11.32
2023-04-01T03:19:27.608Z,11.32
2023-04-01T03:19:48.689Z,11.31
2023-04-01T03:20:09.766Z,11.31
2023-04-01T03:20:30.843Z,11.31
2023-04-01T03:20:51.905Z,11.31
2023-04-01T03:21:12.958Z,11.30
2023-04-01T03:21:34.028Z,11.30
2023-04-01T03:21:55.198Z,11.30
2023-04-01T03:22:16.246Z,11.30
2023-04-01T03:22:37.301Z,11.30
2023-04-01T03:22:58.367Z,11.30
2023-04-01T03:23:19.427Z,11.29
2023-04-01T03:23:40.491Z,11.29
2023-04-01T03:24:01.571Z,11.29
2023-04-01T03:24:22.599Z,11.29
2023-04-01T03:24:43.699Z,11.29
2023-04-01T03:25:04.727Z,11.29
2023-04-01T03:25:25.825Z,11.29
2023-04-01T03:25:47.066Z,11.28
2023-04-01T03:26:08.138Z,11.28
2023-04-01T03:26:29.229Z,11.28
2023-04-01T03:26:50.250Z,11.28
2023-04-01T03:27:11.301Z,11.28
2023-04-01T03:27:32.402Z,11.27
2023-04-01T03:27:53.425Z,11.28
2023-04-01T03:28:14.476Z,11.27
2023-04-01T03:28:35.581Z,11.28
2023-04-01T03:28:56.623Z,11.27
2023-04-01T03:29:17.672Z,11.27
2023-04-01T03:29:38.812Z,11.27
2023-04-01T03:29:59.871Z,11.27
2023-04-01T03:30:20.961Z,11.26
2023-04-01T03:30:42.283Z,11.27
2023-04-01T03:31:03.535Z,11.26
2023-04-01T03:31:24.692Z,11.26
2023-04-01T03:31:45.735Z,11.26
2023-04-01T03:32:06.784Z,11.25
2023-04-01T03:32:27.882Z,11.26
2023-04-01T03:32:48.967Z,11.25
2023-04-01T03:33:10.031Z,11.26
2023-04-01T03:33:31.140Z,11.26
2023-04-01T03:33:52.190Z,11.26
2023-04-01T03:34:13.285Z,11.26
2023-04-01T03:34:34.327Z,11.25
2023-04-01T03:34:55.378Z,11.26
2023-04-01T03:35:16.461Z,11.26
2023-04-01T03:35:37.591Z,11.25
2023-04-01T03:35:58.699Z,11.25
2023-04-01T03:36:19.831Z,11.25
2023-04-01T03:36:40.902Z,11.25
2023-04-01T03:37:01.998Z,11.24
2023-04-01T03:37:23.046Z,11.24
2023-04-01T03:37:44.150Z,11.24
2023-04-01T03:38:05.191Z,11.25
2023-04-01T03:38:26.249Z,11.24
2023-04-01T03:38:47.292Z,11.24
2023-04-01T03:39:08.369Z,11.24
2023-04-01T03:39:29.422Z,11.23
2023-04-01T03:39:50.481Z,11.24
2023-04-01T03:40:11.527Z,11.24
2023-04-01T03:40:32.596Z,11.23
2023-04-01T03:40:53.655Z,11.23
2023-04-01T03:41:14.737Z,11.22
2023-04-01T03:41:35.856Z,11.22
2023-04-01T03:41:56.921Z,11.22
2023-04-01T03:42:17.978Z,11.22
2023-04-01T03:42:39.074Z,11.22
2023-04-01T03:43:00.168Z,11.21
2023-04-01T03:43:21.360Z,11.21
2023-04-01T03:43:42.394Z,11.20
2023-04-01T03:44:03.446Z,11.20
2023-04-01T03:44:24.502Z,11.20
2023-04-01T03:44:45.583Z,11.20
2023-04-01T03:45:06.633Z,11.19
2023-04-01T03:45:27.689Z,11.19
2023-04-01T03:45:48.874Z,11.19
2023-04-01T03:46:09.984Z,11.18
2023-04-01T03:46:31.262Z,11.18
2023-04-01T03:46:52.344Z,11.18
2023-04-01T03:47:13.418Z,11.18
2023-04-01T03:47:34.501Z,11.17
2023-04-01T03:47:55.668Z,11.17
2023-04-01T03:48:16.727Z,11.18
2023-04-01T03:48:37.773Z,11.17
2023-04-01T03:48:58.842Z,11.17
2023-04-01T03:49:19.913Z,11.17
2023-04-01T03:49:40.963Z,11.17
2023-04-01T03:50:02.022Z,11.16
2023-04-01T03:50:23.082Z,11.16
2023-04-01T03:50:44.299Z,11.16
2023-04-01T03:51:05.318Z,11.16
2023-04-01T03:51:26.381Z,11.16
2023-04-01T03:51:47.706Z,11.15
2023-04-01T03:52:08.793Z,11.15
2023-04-01T03:52:29.858Z,11.15
2023-04-01T03:52:50.903Z,11.16
2023-04-01T03:53:11.993Z,11.15
2023-04-01T03:53:33.049Z,11.15
2023-04-01T03:53:54.116Z,11.15
2023-04-01T03:54:15.149Z,11.13
2023-04-01T03:54:36.211Z,11.14
2023-04-01T03:54:57.273Z,11.14
2023-04-01T03:55:18.328Z,11.13
2023-04-01T03:55:39.397Z,11.13
2023-04-01T03:56:00.462Z,11.13
2023-04-01T03:56:21.522Z,11.13
2023-04-01T03:56:42.610Z,11.13
2023-04-01T03:57:03.766Z,11.13
2023-04-01T03:57:24.970Z,11.12
2023-04-01T03:57:46.048Z,11.13
2023-04-01T03:58:07.149Z,11.12
2023-04-01T03:58:28.182Z,11.12
2023-04-01T03:58:49.228Z,11.12
2023-04-01T03:59:10.285Z,11.11
2023-04-01T03:59:31.353Z,11.11
2023-04-01T03:59:52.429Z,11.11
2023-04-01T04:00:13.466Z,11.11
2023-04-01T04:00:34.522Z,11.11
2023-04-01T04:00:55.585Z,11.10
2023-04-01T04:01:16.659Z,11.10
2023-04-01T04:01:37.720Z,11.09
2023-04-01T04:01:58.773Z,11.09
2023-04-01T04:02:20.034Z,11.09
2023-04-01T04:02:41.360Z,11.09
2023-04-01T04:03:02.622Z,11.09
2023-04-01T04:03:23.801Z,11.08
2023-04-01T04:03:45.042Z,11.08
2023-04-01T04:04:06.185Z,11.07
2023-04-01T04:04:27.307Z,11.08
2023-04-01T04:04:48.433Z,11.07
2023-04-01T04:05:09.511Z,11.07
2023-04-01T04:05:30.571Z,11.07
2023-04-01T04:05:51.613Z,11.07
2023-04-01T04:06:12.744Z,11.06
2023-04-01T04:06:33.777Z,11.06
2023-04-01T04:06:54.847Z,11.06
2023-04-01T04:07:15.896Z,11.06
2023-04-01T04:07:37.145Z,11.05
2023-04-01T04:07:58.279Z,11.05
2023-04-01T04:08:19.299Z,11.06
2023-04-01T04:08:40.381Z,11.05
2023-04-01T04:09:01.422Z,11.05
2023-04-01T04:09:22.519Z,11.05
2023-04-01T04:09:43.540Z,11.05
2023-04-01T04:10:04.604Z,11.04
2023-04-01T04:10:25.659Z,11.04
2023-04-01T04:10:46.718Z,11.05
2023-04-01T04:11:07.802Z,11.04
2023-04-01T04:11:28.851Z,11.05
2023-04-01T04:11:49.929Z,11.04
2023-04-01T04:12:10.983Z,11.05
2023-04-01T04:12:32.121Z,11.04
2023-04-01T04:12:53.179Z,11.05
2023-04-01T04:13:14.258Z,11.04
2023-04-01T04:13:35.344Z,11.04
2023-04-01T04:13:57.334Z,11.04
2023-04-01T04:14:19.357Z,11.04
2023-04-01T04:14:40.409Z,11.04
2023-04-01T04:15:01.501Z,11.04
2023-04-01T04:15:22.576Z,11.04
2023-04-01T04:15:43.693Z,11.04
2023-04-01T04:16:04.760Z,11.04
2023-04-01T04:16:25.930Z,11.04
2023-04-01T04:16:47.097Z,11.04
2023-04-01T04:17:08.144Z,11.05
2023-04-01T04:17:29.237Z,11.04
2023-04-01T04:17:50.331Z,11.04
2023-04-01T04:18:11.428Z,11.04
2023-04-01T04:18:32.669Z,11.04
2023-04-01T04:18:53.725Z,11.05
2023-04-01T04:19:14.773Z,11.05
2023-04-01T04:19:35.841Z,11.04
2023-04-01T04:19:56.924Z,11.05
2023-04-01T04:20:17.967Z,11.04
2023-04-01T04:20:39.028Z,11.04
2023-04-01T04:21:00.145Z,11.04
2023-04-01T04:21:21.170Z,11.04
2023-04-01T04:21:42.251Z,11.05
2023-04-01T04:22:03.270Z,11.04
2023-04-01T04:22:24.367Z,11.05
2023-04-01T04:22:45.425Z,11.05
2023-04-01T04:23:06.490Z,11.05
2023-04-01T04:23:27.730Z,11.05
2023-04-01T04:23:48.831Z,11.05
2023-04-01T04:24:09.890Z,11.06
2023-04-01T04:24:30.977Z,11.06
2023-04-01T04:24:52.033Z,11.05
2023-04-01T04:25:13.076Z,11.05
2023-04-01T04:25:34.361Z,11.05
2023-04-01T04:25:55.680Z,11.05
2023-04-01T04:26:16.779Z,11.05
2023-04-01T04:26:37.814Z,11.05
2023-04-01T04:26:58.895Z,11.05
2023-04-01T04:27:19.921Z,11.05
2023-04-01T04:27:40.990Z,11.05
2023-04-01T04:28:02.052Z,11.05
2023-04-01T04:28:23.102Z,11.05
2023-04-01T04:28:44.356Z,11.05
2023-04-01T04:29:05.663Z,11.05
2023-04-01T04:29:26.678Z,11.05
2023-04-01T04:29:47.740Z,11.05
2023-04-01T04:30:08.836Z,11.06
2023-04-01T04:30:29.884Z,11.06
2023-04-01T04:30:50.956Z,11.05
2023-04-01T04:31:12.038Z,11.05
2023-04-01T04:31:33.203Z,11.06
2023-04-01T04:31:54.295Z,11.05
2023-04-01T04:32:15.308Z,11.06